sensor_id;sensor_type;location;lat;lon;timestamp;pressure;altitude;pressure_sealevel;temperature;humidity
60897;BME280;46749;32.932;-117.130;2023-08-17T00:00:38;100846.91;;;20.32;64.21
60897;BME280;46749;32.932;-117.130;2023-08-17T00:03:04;100851.31;;;20.32;64.11
60897;BME280;46749;32.932;-117.130;2023-08-17T00:05:32;100856.59;;;20.32;64.04
60897;BME280;46749;32.932;-117.130;2023-08-17T00:08:02;100859.22;;;20.33;63.87
60897;BME280;46749;32.932;-117.130;2023-08-17T00:10:28;100853.06;;;20.33;64.03
60897;BME280;46749;32.932;-117.130;2023-08-17T00:12:55;100854.81;;;20.34;63.86
60897;BME280;46749;32.932;-117.130;2023-08-17T00:15:21;100839.88;;;20.34;63.97
60897;BME280;46749;32.932;-117.130;2023-08-17T00:17:47;100846.91;;;20.35;63.81
60897;BME280;46749;32.932;-117.130;2023-08-17T00:20:13;100842.50;;;20.36;64.28
60897;BME280;46749;32.932;-117.130;2023-08-17T00:22:39;100831.94;;;20.36;64.09
60897;BME280;46749;32.932;-117.130;2023-08-17T00:25:06;100839.84;;;20.36;64.18
60897;BME280;46749;32.932;-117.130;2023-08-17T00:27:33;100849.56;;;20.37;63.82
60897;BME280;46749;32.932;-117.130;2023-08-17T00:29:59;100853.06;;;20.39;63.97
60897;BME280;46749;32.932;-117.130;2023-08-17T00:32:25;100849.56;;;20.37;64.00
60897;BME280;46749;32.932;-117.130;2023-08-17T00:34:52;100848.66;;;20.38;64.02
60897;BME280;46749;32.932;-117.130;2023-08-17T00:37:18;100845.16;;;20.39;64.10
60897;BME280;46749;32.932;-117.130;2023-08-17T00:39:44;100853.94;;;20.39;64.15
60897;BME280;46749;32.932;-117.130;2023-08-17T00:42:10;100868.00;;;20.40;63.80
60897;BME280;46749;32.932;-117.130;2023-08-17T00:44:36;100860.09;;;20.40;63.97
60897;BME280;46749;32.932;-117.130;2023-08-17T00:47:03;100849.53;;;20.40;63.76
60897;BME280;46749;32.932;-117.130;2023-08-17T00:49:30;100846.00;;;20.41;64.04
60897;BME280;46749;32.932;-117.130;2023-08-17T00:51:57;100841.59;;;20.41;63.93
60897;BME280;46749;32.932;-117.130;2023-08-17T00:54:24;100830.19;;;20.41;64.06
60897;BME280;46749;32.932;-117.130;2023-08-17T00:56:52;100832.81;;;20.41;63.96
60897;BME280;46749;32.932;-117.130;2023-08-17T00:59:21;100827.53;;;20.42;63.87
60897;BME280;46749;32.932;-117.130;2023-08-17T01:01:48;100822.25;;;20.42;63.96
60897;BME280;46749;32.932;-117.130;2023-08-17T01:04:14;100838.09;;;20.42;63.81
60897;BME280;46749;32.932;-117.130;2023-08-17T01:06:41;100828.44;;;20.43;64.11
60897;BME280;46749;32.932;-117.130;2023-08-17T01:09:07;100824.91;;;20.44;63.89
60897;BME280;46749;32.932;-117.130;2023-08-17T01:11:56;100826.69;;;20.45;64.09
60897;BME280;46749;32.932;-117.130;2023-08-17T01:14:37;100829.34;;;20.45;63.98
60897;BME280;46749;32.932;-117.130;2023-08-17T01:17:15;100824.06;;;20.45;64.11
60897;BME280;46749;32.932;-117.130;2023-08-17T01:19:44;100830.19;;;20.47;64.00
60897;BME280;46749;32.932;-117.130;2023-08-17T01:22:13;100827.56;;;20.47;63.96
60897;BME280;46749;32.932;-117.130;2023-08-17T01:24:40;100828.44;;;20.46;63.92
60897;BME280;46749;32.932;-117.130;2023-08-17T01:27:06;100824.94;;;20.47;63.96
60897;BME280;46749;32.932;-117.130;2023-08-17T01:29:33;100825.81;;;20.47;64.15
60897;BME280;46749;32.932;-117.130;2023-08-17T01:33:24;100821.41;;;20.46;63.97
60897;BME280;46749;32.932;-117.130;2023-08-17T01:35:37;100820.53;;;20.49;63.99
60897;BME280;46749;32.932;-117.130;2023-08-17T01:38:07;100812.63;;;20.49;63.85
60897;BME280;46749;32.932;-117.130;2023-08-17T01:40:36;100816.16;;;20.50;64.07
60897;BME280;46749;32.932;-117.130;2023-08-17T01:43:03;100812.63;;;20.49;64.00
60897;BME280;46749;32.932;-117.130;2023-08-17T01:45:29;100800.28;;;20.48;64.13
60897;BME280;46749;32.932;-117.130;2023-08-17T01:47:56;100805.59;;;20.50;63.97
60897;BME280;46749;32.932;-117.130;2023-08-17T01:50:22;100798.56;;;20.50;64.03
60897;BME280;46749;32.932;-117.130;2023-08-17T01:52:48;100795.03;;;20.51;64.03
60897;BME280;46749;32.932;-117.130;2023-08-17T01:55:16;100789.75;;;20.51;63.73
60897;BME280;46749;32.932;-117.130;2023-08-17T01:57:42;100795.91;;;20.52;64.07
60897;BME280;46749;32.932;-117.130;2023-08-17T02:00:09;100798.53;;;20.53;63.96
60897;BME280;46749;32.932;-117.130;2023-08-17T02:02:36;100786.22;;;20.52;64.16
60897;BME280;46749;32.932;-117.130;2023-08-17T02:05:03;100803.81;;;20.53;64.21
60897;BME280;46749;32.932;-117.130;2023-08-17T02:07:29;100799.41;;;20.54;64.06
60897;BME280;46749;32.932;-117.130;2023-08-17T02:09:55;100800.28;;;20.54;64.05
60897;BME280;46749;32.932;-117.130;2023-08-17T02:12:22;100803.81;;;20.53;64.07
60897;BME280;46749;32.932;-117.130;2023-08-17T02:14:48;100804.69;;;20.52;64.09
60897;BME280;46749;32.932;-117.130;2023-08-17T02:17:14;100809.94;;;20.54;64.08
60897;BME280;46749;32.932;-117.130;2023-08-17T02:19:42;100808.19;;;20.54;64.29
60897;BME280;46749;32.932;-117.130;2023-08-17T02:22:10;100807.31;;;20.55;64.04
60897;BME280;46749;32.932;-117.130;2023-08-17T02:24:36;100801.16;;;20.55;63.99
60897;BME280;46749;32.932;-117.130;2023-08-17T02:27:03;100802.94;;;20.56;63.88
60897;BME280;46749;32.932;-117.130;2023-08-17T02:29:29;100809.94;;;20.55;63.87
60897;BME280;46749;32.932;-117.130;2023-08-17T02:31:55;100808.22;;;20.56;63.78
60897;BME280;46749;32.932;-117.130;2023-08-17T02:34:21;100811.72;;;20.56;63.96
60897;BME280;46749;32.932;-117.130;2023-08-17T02:36:47;100814.38;;;20.56;64.15
60897;BME280;46749;32.932;-117.130;2023-08-17T02:39:14;100810.84;;;20.57;64.15
60897;BME280;46749;32.932;-117.130;2023-08-17T02:41:40;100805.56;;;20.57;63.97
60897;BME280;46749;32.932;-117.130;2023-08-17T02:44:06;100804.66;;;20.60;64.16
60897;BME280;46749;32.932;-117.130;2023-08-17T02:46:32;100787.97;;;20.62;64.23
60897;BME280;46749;32.932;-117.130;2023-08-17T02:48:58;100781.75;;;20.66;64.26
60897;BME280;46749;32.932;-117.130;2023-08-17T02:51:25;100788.78;;;20.72;63.99
60897;BME280;46749;32.932;-117.130;2023-08-17T02:53:51;100798.44;;;20.76;64.12
60897;BME280;46749;32.932;-117.130;2023-08-17T02:56:17;100804.56;;;20.80;63.77
60897;BME280;46749;32.932;-117.130;2023-08-17T02:58:43;100801.91;;;20.84;64.02
60897;BME280;46749;32.932;-117.130;2023-08-17T03:01:09;100808.09;;;20.88;64.06
60897;BME280;46749;32.932;-117.130;2023-08-17T03:03:36;100799.25;;;20.90;63.95
60897;BME280;46749;32.932;-117.130;2023-08-17T03:06:03;100795.72;;;20.93;64.15
60897;BME280;46749;32.932;-117.130;2023-08-17T03:08:29;100793.06;;;20.96;64.01
60897;BME280;46749;32.932;-117.130;2023-08-17T03:10:55;100795.69;;;20.97;64.10
60897;BME280;46749;32.932;-117.130;2023-08-17T03:13:21;100798.31;;;20.99;64.02
60897;BME280;46749;32.932;-117.130;2023-08-17T03:15:47;100812.41;;;21.01;64.07
60897;BME280;46749;32.932;-117.130;2023-08-17T03:18:13;100808.91;;;21.00;64.02
60897;BME280;46749;32.932;-117.130;2023-08-17T03:20:40;100805.38;;;21.00;63.84
60897;BME280;46749;32.932;-117.130;2023-08-17T03:23:06;100806.25;;;20.97;63.73
60897;BME280;46749;32.932;-117.130;2023-08-17T03:25:33;100806.28;;;20.94;63.72
60897;BME280;46749;32.932;-117.130;2023-08-17T03:28:00;100815.97;;;20.94;64.21
60897;BME280;46749;32.932;-117.130;2023-08-17T03:30:26;100817.72;;;20.92;63.85
60897;BME280;46749;32.932;-117.130;2023-08-17T03:32:52;100815.97;;;20.91;63.96
60897;BME280;46749;32.932;-117.130;2023-08-17T03:35:18;100823.03;;;20.89;63.75
60897;BME280;46749;32.932;-117.130;2023-08-17T03:37:45;100816.00;;;20.88;64.14
60897;BME280;46749;32.932;-117.130;2023-08-17T03:40:11;100812.47;;;20.86;64.01
60897;BME280;46749;32.932;-117.130;2023-08-17T03:42:37;100796.66;;;20.84;64.08
60897;BME280;46749;32.932;-117.130;2023-08-17T03:45:04;100798.41;;;20.84;64.20
60897;BME280;46749;32.932;-117.130;2023-08-17T03:47:30;100800.19;;;20.82;63.94
60897;BME280;46749;32.932;-117.130;2023-08-17T03:49:56;100813.38;;;20.82;64.21
60897;BME280;46749;32.932;-117.130;2023-08-17T03:52:23;100811.63;;;20.81;64.01
60897;BME280;46749;32.932;-117.130;2023-08-17T03:54:49;100817.78;;;20.80;64.03
60897;BME280;46749;32.932;-117.130;2023-08-17T03:57:15;100830.13;;;20.81;64.11
60897;BME280;46749;32.932;-117.130;2023-08-17T03:59:41;100838.88;;;20.80;63.89
60897;BME280;46749;32.932;-117.130;2023-08-17T04:02:07;100830.97;;;20.80;63.92
60897;BME280;46749;32.932;-117.130;2023-08-17T04:04:33;100837.13;;;20.79;64.26
60897;BME280;46749;32.932;-117.130;2023-08-17T04:06:59;100834.50;;;20.79;63.94
60897;BME280;46749;32.932;-117.130;2023-08-17T04:09:26;100844.19;;;20.78;64.00
60897;BME280;46749;32.932;-117.130;2023-08-17T04:11:52;100852.97;;;20.79;63.92
60897;BME280;46749;32.932;-117.130;2023-08-17T04:14:18;100856.50;;;20.78;64.03
60897;BME280;46749;32.932;-117.130;2023-08-17T04:16:44;100854.75;;;20.77;64.09
60897;BME280;46749;32.932;-117.130;2023-08-17T04:19:10;100860.03;;;20.77;63.98
60897;BME280;46749;32.932;-117.130;2023-08-17T04:21:36;100864.44;;;20.76;63.92
60897;BME280;46749;32.932;-117.130;2023-08-17T04:24:03;100868.84;;;20.76;63.87
60897;BME280;46749;32.932;-117.130;2023-08-17T04:26:29;100874.13;;;20.76;64.02
60897;BME280;46749;32.932;-117.130;2023-08-17T04:28:55;100875.00;;;20.76;64.09
60897;BME280;46749;32.932;-117.130;2023-08-17T04:31:21;100879.38;;;20.74;64.10
60897;BME280;46749;32.932;-117.130;2023-08-17T04:33:48;100882.00;;;20.74;64.07
60897;BME280;46749;32.932;-117.130;2023-08-17T04:36:14;100881.13;;;20.73;64.09
60897;BME280;46749;32.932;-117.130;2023-08-17T04:38:40;100863.56;;;20.72;64.09
60897;BME280;46749;32.932;-117.130;2023-08-17T04:41:06;100861.81;;;20.71;63.87
60897;BME280;46749;32.932;-117.130;2023-08-17T04:43:32;100862.69;;;20.72;64.19
60897;BME280;46749;32.932;-117.130;2023-08-17T04:45:59;100860.06;;;20.70;64.09
60897;BME280;46749;32.932;-117.130;2023-08-17T04:48:25;100865.31;;;20.70;64.21
60897;BME280;46749;32.932;-117.130;2023-08-17T04:50:51;100854.78;;;20.70;64.16
60897;BME280;46749;32.932;-117.130;2023-08-17T04:53:17;100853.03;;;20.69;64.35
60897;BME280;46749;32.932;-117.130;2023-08-17T04:55:43;100848.63;;;20.68;64.02
60897;BME280;46749;32.932;-117.130;2023-08-17T04:58:10;100846.00;;;20.68;64.02
60897;BME280;46749;32.932;-117.130;2023-08-17T05:00:36;100852.16;;;20.69;64.18
60897;BME280;46749;32.932;-117.130;2023-08-17T05:03:03;100860.03;;;20.67;63.87
60897;BME280;46749;32.932;-117.130;2023-08-17T05:05:29;100856.53;;;20.67;64.20
60897;BME280;46749;32.932;-117.130;2023-08-17T05:07:55;100869.72;;;20.67;64.14
60897;BME280;46749;32.932;-117.130;2023-08-17T05:10:22;100869.72;;;20.67;63.95
60897;BME280;46749;32.932;-117.130;2023-08-17T05:12:48;100879.41;;;20.66;64.00
60897;BME280;46749;32.932;-117.130;2023-08-17T05:15:14;100889.09;;;20.66;64.30
60897;BME280;46749;32.932;-117.130;2023-08-17T05:17:40;100900.53;;;20.66;63.87
60897;BME280;46749;32.932;-117.130;2023-08-17T05:20:07;100895.25;;;20.66;64.09
60897;BME280;46749;32.932;-117.130;2023-08-17T05:22:33;100896.13;;;20.65;63.90
60897;BME280;46749;32.932;-117.130;2023-08-17T05:25:02;100909.31;;;20.65;64.13
60897;BME280;46749;32.932;-117.130;2023-08-17T05:27:28;100904.91;;;20.66;64.02
60897;BME280;46749;32.932;-117.130;2023-08-17T05:29:54;100907.56;;;20.64;64.15
60897;BME280;46749;32.932;-117.130;2023-08-17T05:32:21;100909.34;;;20.64;64.05
60897;BME280;46749;32.932;-117.130;2023-08-17T05:34:47;100911.09;;;20.63;64.18
60897;BME280;46749;32.932;-117.130;2023-08-17T05:37:13;100897.91;;;20.62;64.10
60897;BME280;46749;32.932;-117.130;2023-08-17T05:39:41;100885.59;;;20.62;64.07
60897;BME280;46749;32.932;-117.130;2023-08-17T05:42:07;100877.69;;;20.62;64.06
60897;BME280;46749;32.932;-117.130;2023-08-17T05:44:33;100866.25;;;20.62;63.98
60897;BME280;46749;32.932;-117.130;2023-08-17T05:46:59;100866.25;;;20.62;64.03
60897;BME280;46749;32.932;-117.130;2023-08-17T05:49:25;100860.94;;;20.60;64.03
60897;BME280;46749;32.932;-117.130;2023-08-17T05:51:51;100862.72;;;20.60;64.08
60897;BME280;46749;32.932;-117.130;2023-08-17T05:54:18;100851.28;;;20.59;64.08
60897;BME280;46749;32.932;-117.130;2023-08-17T05:56:44;100856.56;;;20.59;64.03
60897;BME280;46749;32.932;-117.130;2023-08-17T05:59:12;100854.78;;;20.60;64.29
60897;BME280;46749;32.932;-117.130;2023-08-17T06:01:39;100846.00;;;20.59;64.12
60897;BME280;46749;32.932;-117.130;2023-08-17T06:04:06;100844.25;;;20.58;64.18
60897;BME280;46749;32.932;-117.130;2023-08-17T06:06:33;100832.81;;;20.58;64.11
60897;BME280;46749;32.932;-117.130;2023-08-17T06:08:59;100825.78;;;20.57;63.91
60897;BME280;46749;32.932;-117.130;2023-08-17T06:11:26;100819.63;;;20.56;64.12
60897;BME280;46749;32.932;-117.130;2023-08-17T06:13:52;100824.03;;;20.57;64.19
60897;BME280;46749;32.932;-117.130;2023-08-17T06:16:18;100819.63;;;20.56;63.98
60897;BME280;46749;32.932;-117.130;2023-08-17T06:18:44;100824.91;;;20.56;64.13
60897;BME280;46749;32.932;-117.130;2023-08-17T06:21:10;100816.09;;;20.54;63.96
60897;BME280;46749;32.932;-117.130;2023-08-17T06:23:36;100815.22;;;20.55;64.13
60897;BME280;46749;32.932;-117.130;2023-08-17T06:26:03;100812.56;;;20.55;63.93
60897;BME280;46749;32.932;-117.130;2023-08-17T06:28:29;100806.44;;;20.55;64.00
60897;BME280;46749;32.932;-117.130;2023-08-17T06:30:55;100809.06;;;20.53;64.37
60897;BME280;46749;32.932;-117.130;2023-08-17T06:33:22;100799.41;;;20.54;63.81
60897;BME280;46749;32.932;-117.130;2023-08-17T06:35:49;100804.69;;;20.54;64.10
60897;BME280;46749;32.932;-117.130;2023-08-17T06:38:15;100798.53;;;20.53;63.99
60897;BME280;46749;32.932;-117.130;2023-08-17T06:40:41;100802.94;;;20.53;64.08
60897;BME280;46749;32.932;-117.130;2023-08-17T06:43:07;100801.19;;;20.52;63.88
60897;BME280;46749;32.932;-117.130;2023-08-17T06:45:35;100805.56;;;20.53;63.94
60897;BME280;46749;32.932;-117.130;2023-08-17T06:48:01;100817.00;;;20.53;63.94
60897;BME280;46749;32.932;-117.130;2023-08-17T06:50:27;100822.28;;;20.52;64.10
60897;BME280;46749;32.932;-117.130;2023-08-17T06:52:54;100825.78;;;20.52;63.83
60897;BME280;46749;32.932;-117.130;2023-08-17T06:55:20;100834.59;;;20.51;63.95
60897;BME280;46749;32.932;-117.130;2023-08-17T06:57:47;100826.69;;;20.51;64.20
60897;BME280;46749;32.932;-117.130;2023-08-17T07:00:15;100809.09;;;20.50;63.77
60897;BME280;46749;32.932;-117.130;2023-08-17T07:02:41;100811.75;;;20.50;64.04
60897;BME280;46749;32.932;-117.130;2023-08-17T07:05:08;100828.47;;;20.49;63.98
60897;BME280;46749;32.932;-117.130;2023-08-17T07:07:36;100831.97;;;20.50;64.25
60897;BME280;46749;32.932;-117.130;2023-08-17T07:10:02;100832.84;;;20.50;64.01
60897;BME280;46749;32.932;-117.130;2023-08-17T07:12:28;100846.03;;;20.48;64.16
60897;BME280;46749;32.932;-117.130;2023-08-17T07:14:54;100857.47;;;20.47;64.07
60897;BME280;46749;32.932;-117.130;2023-08-17T07:17:20;100853.06;;;20.48;64.03
60897;BME280;46749;32.932;-117.130;2023-08-17T07:19:47;100868.88;;;20.48;64.22
60897;BME280;46749;32.932;-117.130;2023-08-17T07:22:13;100873.28;;;20.47;64.14
60897;BME280;46749;32.932;-117.130;2023-08-17T07:24:39;100872.41;;;20.47;63.85
60897;BME280;46749;32.932;-117.130;2023-08-17T07:27:05;100856.59;;;20.47;63.85
60897;BME280;46749;32.932;-117.130;2023-08-17T07:29:31;100844.28;;;20.46;64.35
60897;BME280;46749;32.932;-117.130;2023-08-17T07:31:57;100825.81;;;20.46;64.15
60897;BME280;46749;32.932;-117.130;2023-08-17T07:34:27;100813.50;;;20.45;64.04
60897;BME280;46749;32.932;-117.130;2023-08-17T07:36:54;100826.69;;;20.45;64.06
60897;BME280;46749;32.932;-117.130;2023-08-17T07:39:20;100840.75;;;20.44;63.87
60897;BME280;46749;32.932;-117.130;2023-08-17T07:41:47;100850.44;;;20.45;64.18
60897;BME280;46749;32.932;-117.130;2023-08-17T07:44:13;100846.03;;;20.44;63.86
60897;BME280;46749;32.932;-117.130;2023-08-17T07:46:39;100852.19;;;20.43;64.18
60897;BME280;46749;32.932;-117.130;2023-08-17T07:49:05;100857.47;;;20.43;64.20
60897;BME280;46749;32.932;-117.130;2023-08-17T07:51:32;100854.81;;;20.43;64.18
60897;BME280;46749;32.932;-117.130;2023-08-17T07:54:02;100863.59;;;20.42;64.02
60897;BME280;46749;32.932;-117.130;2023-08-17T07:56:28;100856.56;;;20.42;64.12
60897;BME280;46749;32.932;-117.130;2023-08-17T07:58:54;100856.56;;;20.41;63.87
60897;BME280;46749;32.932;-117.130;2023-08-17T08:01:21;100846.88;;;20.41;63.96
60897;BME280;46749;32.932;-117.130;2023-08-17T08:03:47;100849.53;;;20.40;64.19
60897;BME280;46749;32.932;-117.130;2023-08-17T08:06:13;100853.94;;;20.41;64.03
60897;BME280;46749;32.932;-117.130;2023-08-17T08:08:42;100849.53;;;20.40;64.15
60897;BME280;46749;32.932;-117.130;2023-08-17T08:11:09;100844.25;;;20.40;64.15
60897;BME280;46749;32.932;-117.130;2023-08-17T08:13:35;100821.41;;;20.39;63.95
60897;BME280;46749;32.932;-117.130;2023-08-17T08:16:01;100820.53;;;20.38;63.91
60897;BME280;46749;32.932;-117.130;2023-08-17T08:18:27;100803.81;;;20.38;63.99
60897;BME280;46749;32.932;-117.130;2023-08-17T08:20:54;100795.91;;;20.38;64.15
60897;BME280;46749;32.932;-117.130;2023-08-17T08:23:20;100795.00;;;20.36;64.03
60897;BME280;46749;32.932;-117.130;2023-08-17T08:25:46;100787.09;;;20.36;64.17
60897;BME280;46749;32.932;-117.130;2023-08-17T08:28:12;100778.34;;;20.37;64.14
60897;BME280;46749;32.932;-117.130;2023-08-17T08:30:38;100789.75;;;20.36;64.26
60897;BME280;46749;32.932;-117.130;2023-08-17T08:33:05;100790.63;;;20.35;64.12
60897;BME280;46749;32.932;-117.130;2023-08-17T08:35:31;100788.88;;;20.35;63.96
60897;BME280;46749;32.932;-117.130;2023-08-17T08:37:58;100790.63;;;20.35;64.20
60897;BME280;46749;32.932;-117.130;2023-08-17T08:40:29;100787.13;;;20.34;64.05
60897;BME280;46749;32.932;-117.130;2023-08-17T08:42:56;100786.25;;;20.34;64.06
60897;BME280;46749;32.932;-117.130;2023-08-17T08:45:23;100787.13;;;20.33;64.14
60897;BME280;46749;32.932;-117.130;2023-08-17T08:47:51;100780.09;;;20.32;64.34
60897;BME280;46749;32.932;-117.130;2023-08-17T08:50:19;100782.75;;;20.32;64.15
60897;BME280;46749;32.932;-117.130;2023-08-17T08:52:57;100778.34;;;20.31;63.90
60897;BME280;46749;32.932;-117.130;2023-08-17T08:55:27;100770.44;;;20.31;63.94
60897;BME280;46749;32.932;-117.130;2023-08-17T08:57:56;100762.53;;;20.31;64.17
60897;BME280;46749;32.932;-117.130;2023-08-17T09:00:23;100767.81;;;20.31;63.98
60897;BME280;46749;32.932;-117.130;2023-08-17T09:02:51;100768.66;;;20.30;64.08
60897;BME280;46749;32.932;-117.130;2023-08-17T09:05:18;100776.56;;;20.30;63.96
60897;BME280;46749;32.932;-117.130;2023-08-17T09:07:45;100777.44;;;20.29;64.15
60897;BME280;46749;32.932;-117.130;2023-08-17T09:10:14;100775.69;;;20.29;63.98
60897;BME280;46749;32.932;-117.130;2023-08-17T09:12:43;100770.44;;;20.28;64.25
60897;BME280;46749;32.932;-117.130;2023-08-17T09:15:09;100770.44;;;20.28;64.18
60897;BME280;46749;32.932;-117.130;2023-08-17T09:17:36;100766.03;;;20.27;64.22
60897;BME280;46749;32.932;-117.130;2023-08-17T09:20:03;100766.03;;;20.27;64.07
60897;BME280;46749;32.932;-117.130;2023-08-17T09:22:39;100766.94;;;20.26;64.07
60897;BME280;46749;32.932;-117.130;2023-08-17T09:25:06;100770.44;;;20.28;64.29
60897;BME280;46749;32.932;-117.130;2023-08-17T09:27:33;100756.38;;;20.26;64.13
60897;BME280;46749;32.932;-117.130;2023-08-17T09:32:31;100751.09;;;20.26;64.23
60897;BME280;46749;32.932;-117.130;2023-08-17T09:35:00;100751.13;;;20.24;63.92
60897;BME280;46749;32.932;-117.130;2023-08-17T09:37:27;100737.91;;;20.26;64.03
60897;BME280;46749;32.932;-117.130;2023-08-17T09:39:54;100746.69;;;20.23;64.31
60897;BME280;46749;32.932;-117.130;2023-08-17T09:42:21;100737.03;;;20.24;64.20
60897;BME280;46749;32.932;-117.130;2023-08-17T09:44:52;100735.28;;;20.23;64.09
60897;BME280;46749;32.932;-117.130;2023-08-17T09:47:19;100737.91;;;20.23;64.24
60897;BME280;46749;32.932;-117.130;2023-08-17T09:49:54;100746.72;;;20.21;64.20
60897;BME280;46749;32.932;-117.130;2023-08-17T09:52:21;100744.06;;;20.21;64.13
60897;BME280;46749;32.932;-117.130;2023-08-17T09:54:47;100743.19;;;20.21;64.15
60897;BME280;46749;32.932;-117.130;2023-08-17T09:57:15;100744.06;;;20.21;64.01
60897;BME280;46749;32.932;-117.130;2023-08-17T09:59:41;100731.78;;;20.20;64.12
60897;BME280;46749;32.932;-117.130;2023-08-17T10:02:22;100730.03;;;20.19;63.88
60897;BME280;46749;32.932;-117.130;2023-08-17T10:04:53;100724.75;;;20.19;64.21
60897;BME280;46749;32.932;-117.130;2023-08-17T10:07:20;100721.22;;;20.20;64.19
60897;BME280;46749;32.932;-117.130;2023-08-17T10:09:57;100726.50;;;20.19;64.03
60897;BME280;46749;32.932;-117.130;2023-08-17T10:12:28;100726.50;;;20.19;64.31
60897;BME280;46749;32.932;-117.130;2023-08-17T10:15:08;100727.41;;;20.18;64.33
60897;BME280;46749;32.932;-117.130;2023-08-17T10:17:44;100732.69;;;20.18;64.17
60897;BME280;46749;32.932;-117.130;2023-08-17T10:20:15;100731.75;;;20.17;64.14
60897;BME280;46749;32.932;-117.130;2023-08-17T10:22:49;100741.44;;;20.17;64.10
60897;BME280;46749;32.932;-117.130;2023-08-17T10:25:18;100740.56;;;20.16;64.13
60897;BME280;46749;32.932;-117.130;2023-08-17T10:27:46;100740.56;;;20.16;64.15
60897;BME280;46749;32.932;-117.130;2023-08-17T10:30:13;100727.38;;;20.16;64.09
60897;BME280;46749;32.932;-117.130;2023-08-17T10:32:39;100723.00;;;20.15;63.95
60897;BME280;46749;32.932;-117.130;2023-08-17T10:35:10;100733.53;;;20.15;63.92
60897;BME280;46749;32.932;-117.130;2023-08-17T10:37:38;100741.47;;;20.14;64.09
60897;BME280;46749;32.932;-117.130;2023-08-17T10:40:04;100741.47;;;20.14;64.09
60897;BME280;46749;32.932;-117.130;2023-08-17T10:42:33;100746.75;;;20.14;64.11
60897;BME280;46749;32.932;-117.130;2023-08-17T10:45:25;100756.41;;;20.13;63.92
60897;BME280;46749;32.932;-117.130;2023-08-17T10:50:38;100750.25;;;20.13;64.08
60897;BME280;46749;32.932;-117.130;2023-08-17T10:53:10;100747.63;;;20.13;64.25
60897;BME280;46749;32.932;-117.130;2023-08-17T10:55:41;100750.25;;;20.13;63.99
60897;BME280;46749;32.932;-117.130;2023-08-17T10:58:08;100744.13;;;20.12;64.17
60897;BME280;46749;32.932;-117.130;2023-08-17T11:00:36;100752.00;;;20.11;64.28
60897;BME280;46749;32.932;-117.130;2023-08-17T11:03:07;100752.00;;;20.11;64.31
60897;BME280;46749;32.932;-117.130;2023-08-17T11:08:04;100761.66;;;20.10;64.03
60897;BME280;46749;32.932;-117.130;2023-08-17T11:10:31;100754.66;;;20.09;63.84
60897;BME280;46749;32.932;-117.130;2023-08-17T11:12:59;100748.50;;;20.09;64.19
60897;BME280;46749;32.932;-117.130;2023-08-17T11:15:36;100747.63;;;20.08;64.18
60897;BME280;46749;32.932;-117.130;2023-08-17T11:18:06;100746.75;;;20.08;64.18
60897;BME280;46749;32.932;-117.130;2023-08-17T11:20:34;100745.00;;;20.08;64.32
60897;BME280;46749;32.932;-117.130;2023-08-17T11:23:01;100741.47;;;20.08;64.16
60897;BME280;46749;32.932;-117.130;2023-08-17T11:25:28;100739.72;;;20.07;64.04
60897;BME280;46749;32.932;-117.130;2023-08-17T11:27:54;100730.94;;;20.06;64.01
60897;BME280;46749;32.932;-117.130;2023-08-17T11:30:21;100723.03;;;20.06;63.92
60897;BME280;46749;32.932;-117.130;2023-08-17T11:32:52;100726.56;;;20.05;64.07
60897;BME280;46749;32.932;-117.130;2023-08-17T11:35:19;100727.44;;;20.06;64.19
60897;BME280;46749;32.932;-117.130;2023-08-17T11:37:45;100717.75;;;20.05;64.25
60897;BME280;46749;32.932;-117.130;2023-08-17T11:40:12;100716.88;;;20.04;64.22
60897;BME280;46749;32.932;-117.130;2023-08-17T11:42:38;100716.88;;;20.04;64.10
60897;BME280;46749;32.932;-117.130;2023-08-17T11:45:05;100716.88;;;20.04;63.96
60897;BME280;46749;32.932;-117.130;2023-08-17T11:47:36;100708.97;;;20.01;64.02
60897;BME280;46749;32.932;-117.130;2023-08-17T11:50:04;100715.13;;;20.03;64.28
60897;BME280;46749;32.932;-117.130;2023-08-17T11:52:31;100711.63;;;20.01;64.07
60897;BME280;46749;32.932;-117.130;2023-08-17T11:55:01;100723.03;;;20.02;64.41
60897;BME280;46749;32.932;-117.130;2023-08-17T11:57:27;100731.81;;;20.02;64.36
60897;BME280;46749;32.932;-117.130;2023-08-17T11:59:56;100724.78;;;20.01;64.04
60897;BME280;46749;32.932;-117.130;2023-08-17T12:02:27;100723.91;;;20.01;64.23
60897;BME280;46749;32.932;-117.130;2023-08-17T12:04:55;100723.03;;;20.00;64.28
60897;BME280;46749;32.932;-117.130;2023-08-17T12:07:23;100728.31;;;20.00;64.31
60897;BME280;46749;32.932;-117.130;2023-08-17T12:09:50;100734.47;;;19.99;64.38
60897;BME280;46749;32.932;-117.130;2023-08-17T12:12:21;100742.38;;;19.99;64.19
60897;BME280;46749;32.932;-117.130;2023-08-17T12:14:50;100737.13;;;19.99;64.25
60897;BME280;46749;32.932;-117.130;2023-08-17T12:17:18;100740.59;;;19.98;64.16
60897;BME280;46749;32.932;-117.130;2023-08-17T12:19:49;100747.63;;;19.98;64.27
60897;BME280;46749;32.932;-117.130;2023-08-17T12:22:16;100743.25;;;19.98;64.30
60897;BME280;46749;32.932;-117.130;2023-08-17T12:24:43;100741.50;;;19.97;64.21
60897;BME280;46749;32.932;-117.130;2023-08-17T12:27:10;100738.84;;;19.97;64.24
60897;BME280;46749;32.932;-117.130;2023-08-17T12:29:49;100742.38;;;19.96;64.08